createdAt,value
2018-12-21T00:00:45.836Z,5.40
2018-12-21T00:03:13.334Z,5.40
2018-12-21T00:05:40.841Z,5.50
2018-12-21T00:08:08.494Z,5.50
2018-12-21T00:10:35.991Z,5.60
2018-12-21T00:13:03.536Z,5.70
2018-12-21T00:15:31.060Z,5.70
2018-12-21T00:17:58.579Z,5.70
2018-12-21T00:20:26.088Z,5.70
2018-12-21T00:22:53.656Z,5.70
2018-12-21T00:25:21.168Z,5.70
2018-12-21T00:27:48.696Z,5.80
2018-12-21T00:30:18.223Z,5.80
2018-12-21T00:32:51.374Z,5.80
2018-12-21T00:35:24.599Z,5.70
2018-12-21T00:37:57.869Z,5.70
2018-12-21T00:40:30.968Z,5.60
2018-12-21T00:43:00.982Z,5.60
2018-12-21T00:45:30.586Z,5.60
2018-12-21T00:47:58.095Z,5.50
2018-12-21T00:50:25.726Z,5.50
2018-12-21T00:52:53.295Z,5.50
2018-12-21T00:55:20.821Z,5.50
2018-12-21T00:57:48.348Z,5.50
2018-12-21T01:00:20.097Z,5.40
2018-12-21T01:02:47.752Z,5.30
2018-12-21T01:05:15.268Z,5.20
2018-12-21T01:07:42.825Z,5.20
2018-12-21T01:10:10.513Z,5.20
2018-12-21T01:12:38.119Z,5.20
2018-12-21T01:15:06.068Z,5.10
2018-12-21T01:17:33.739Z,5.10
2018-12-21T01:20:01.284Z,5.10
2018-12-21T01:22:28.827Z,5.00
2018-12-21T01:24:56.336Z,5.00
2018-12-21T01:27:23.871Z,5.10
2018-12-21T01:29:51.393Z,5.20
2018-12-21T01:32:19.060Z,5.10
2018-12-21T01:34:46.582Z,5.10
2018-12-21T01:37:14.114Z,5.20
2018-12-21T01:39:41.598Z,5.10
2018-12-21T01:42:09.308Z,5.10
2018-12-21T01:44:36.886Z,5.10
2018-12-21T01:47:04.427Z,5.10
2018-12-21T01:49:31.981Z,5.10
2018-12-21T01:51:59.510Z,5.10
2018-12-21T01:54:27.077Z,5.10
2018-12-21T01:56:54.584Z,5.10
2018-12-21T01:59:22.159Z,5.10
2018-12-21T02:01:49.711Z,5.10
2018-12-21T02:04:17.256Z,5.10
2018-12-21T02:06:44.892Z,5.10
2018-12-21T02:09:12.529Z,5.10
2018-12-21T02:11:40.090Z,5.10
2018-12-21T02:14:07.719Z,5.10
2018-12-21T02:16:35.272Z,5.10
2018-12-21T02:19:02.824Z,5.00
2018-12-21T02:21:30.337Z,5.10
2018-12-21T02:23:57.946Z,5.10
2018-12-21T02:26:25.471Z,5.10
2018-12-21T02:28:53.024Z,5.10
2018-12-21T02:31:20.610Z,5.10
2018-12-21T02:33:48.129Z,5.20
2018-12-21T02:36:15.658Z,5.20
2018-12-21T02:38:43.180Z,5.20
2018-12-21T02:41:10.733Z,5.20
2018-12-21T02:43:38.283Z,5.20
2018-12-21T02:46:05.820Z,5.30
2018-12-21T02:48:33.389Z,5.20
2018-12-21T02:51:00.908Z,5.20
2018-12-21T02:53:28.626Z,5.20
2018-12-21T02:55:56.168Z,5.20
2018-12-21T02:58:23.695Z,5.10
2018-12-21T03:00:51.195Z,5.10
2018-12-21T03:03:18.760Z,5.10
2018-12-21T03:05:46.419Z,5.10
2018-12-21T03:08:13.930Z,5.10
2018-12-21T03:10:41.457Z,5.20
2018-12-21T03:13:08.998Z,5.10
2018-12-21T03:15:36.535Z,5.10
2018-12-21T03:18:04.072Z,5.10
2018-12-21T03:20:31.605Z,5.10
2018-12-21T03:22:59.175Z,5.10
2018-12-21T03:25:26.708Z,5.10
2018-12-21T03:27:54.228Z,5.10
2018-12-21T03:30:21.741Z,5.10
2018-12-21T03:32:49.289Z,5.10
2018-12-21T03:35:16.811Z,5.10
2018-12-21T03:37:44.348Z,5.20
2018-12-21T03:40:11.901Z,5.20
2018-12-21T03:42:39.527Z,5.30
2018-12-21T03:45:07.385Z,5.30
2018-12-21T03:47:34.893Z,5.30
2018-12-21T03:50:02.496Z,5.30
2018-12-21T03:52:30.058Z,5.30
2018-12-21T03:54:57.557Z,5.30
2018-12-21T03:57:25.117Z,5.20
2018-12-21T03:59:52.663Z,5.20
2018-12-21T04:02:20.988Z,5.30
2018-12-21T04:04:48.658Z,5.30
2018-12-21T04:07:16.227Z,5.30
2018-12-21T04:09:43.754Z,5.40
2018-12-21T04:12:11.288Z,5.30
2018-12-21T04:14:38.864Z,5.30
2018-12-21T04:17:06.530Z,5.30
2018-12-21T04:19:34.078Z,5.30
2018-12-21T04:22:01.728Z,5.40
2018-12-21T04:24:29.237Z,5.40
2018-12-21T04:26:56.801Z,5.40
2018-12-21T04:29:24.352Z,5.40
2018-12-21T04:31:51.861Z,5.40
2018-12-21T04:34:19.434Z,5.40
2018-12-21T04:36:46.949Z,5.30
2018-12-21T04:39:14.503Z,5.30
2018-12-21T04:41:42.100Z,5.30
2018-12-21T04:44:09.613Z,5.30
2018-12-21T04:46:37.149Z,5.30
2018-12-21T04:49:04.682Z,5.30
2018-12-21T04:51:32.213Z,5.30
2018-12-21T04:53:59.820Z,5.40
2018-12-21T04:56:27.361Z,5.40
2018-12-21T04:58:54.915Z,5.40
2018-12-21T05:01:22.460Z,5.40
2018-12-21T05:03:50.021Z,5.40
2018-12-21T05:06:17.541Z,5.40
2018-12-21T05:08:45.128Z,5.40
2018-12-21T05:11:12.655Z,5.40
2018-12-21T05:13:40.197Z,5.30
2018-12-21T05:16:07.758Z,5.30
2018-12-21T05:18:35.460Z,5.30
2018-12-21T05:21:03.020Z,5.40
2018-12-21T05:23:30.600Z,5.40
2018-12-21T05:25:58.129Z,5.40
2018-12-21T05:28:25.688Z,5.40
2018-12-21T05:30:53.205Z,5.50
2018-12-21T05:33:20.786Z,5.50
2018-12-21T05:35:48.424Z,5.40
2018-12-21T05:38:15.944Z,5.40
2018-12-21T05:40:43.435Z,5.40
2018-12-21T05:43:10.998Z,5.50
2018-12-21T05:45:38.502Z,5.50
2018-12-21T05:48:06.073Z,5.50
2018-12-21T05:50:33.655Z,5.40
2018-12-21T05:53:01.204Z,5.30
2018-12-21T05:55:28.735Z,5.20
2018-12-21T05:57:56.263Z,5.10
2018-12-21T06:00:23.864Z,5.00
2018-12-21T06:02:51.373Z,5.00
2018-12-21T06:05:18.875Z,4.80
2018-12-21T06:07:46.531Z,4.80
2018-12-21T06:10:14.070Z,4.70
2018-12-21T06:12:41.763Z,4.70
2018-12-21T06:15:09.340Z,4.60
2018-12-21T06:17:36.856Z,4.60
2018-12-21T06:20:05.240Z,4.50
2018-12-21T06:22:32.856Z,4.50
2018-12-21T06:25:00.389Z,4.50
2018-12-21T06:27:27.976Z,4.50
2018-12-21T06:29:55.487Z,4.60
2018-12-21T06:32:23.012Z,4.60
2018-12-21T06:34:50.539Z,4.60
2018-12-21T06:37:18.067Z,4.70
2018-12-21T06:39:45.570Z,4.80
2018-12-21T06:42:13.107Z,4.90
2018-12-21T06:44:40.623Z,4.90
2018-12-21T06:47:08.182Z,4.90
2018-12-21T06:49:35.706Z,4.90
2018-12-21T06:52:03.224Z,4.80
2018-12-21T06:54:30.724Z,4.80
2018-12-21T06:56:58.255Z,4.80
2018-12-21T06:59:25.793Z,4.80
2018-12-21T07:01:53.353Z,4.80
2018-12-21T07:04:20.892Z,4.80
2018-12-21T07:06:48.458Z,4.90
2018-12-21T07:09:15.994Z,5.00
2018-12-21T07:11:43.526Z,5.10
2018-12-21T07:14:11.060Z,5.20
2018-12-21T07:16:38.667Z,5.30
2018-12-21T07:19:06.250Z,5.30
2018-12-21T07:21:33.813Z,5.50
2018-12-21T07:24:01.359Z,5.60
2018-12-21T07:26:28.939Z,5.70
2018-12-21T07:28:56.431Z,5.90
2018-12-21T07:31:23.983Z,6.00
2018-12-21T07:33:51.513Z,6.10
2018-12-21T07:36:19.082Z,6.20
2018-12-21T07:38:46.682Z,6.40
2018-12-21T07:41:14.239Z,6.70
2018-12-21T07:43:41.771Z,6.90
2018-12-21T07:46:09.299Z,7.00
2018-12-21T07:48:37.495Z,7.10
2018-12-21T07:51:05.043Z,7.20
2018-12-21T07:53:35.998Z,7.30
2018-12-21T07:56:02.207Z,7.50
2018-12-21T07:58:32.552Z,7.60
2018-12-21T08:01:00.205Z,7.70
2018-12-21T08:03:27.723Z,7.70
2018-12-21T08:05:55.410Z,7.80
2018-12-21T08:08:22.960Z,7.90
2018-12-21T08:10:50.488Z,7.90
2018-12-21T08:13:18.047Z,8.00
2018-12-21T08:15:45.884Z,8.00
2018-12-21T08:18:13.426Z,8.00
2018-12-21T08:20:40.977Z,8.10
2018-12-21T08:23:08.520Z,8.10
2018-12-21T08:25:36.054Z,8.20
2018-12-21T08:28:03.649Z,8.20
2018-12-21T08:30:31.236Z,8.10
2018-12-21T08:35:49.065Z,7.50
2018-12-21T08:38:16.613Z,7.10
2018-12-21T08:41:03.740Z,6.80
2018-12-21T08:43:31.296Z,6.50
2018-12-21T08:45:58.894Z,6.30
2018-12-21T08:48:26.448Z,6.10
2018-12-21T08:50:54.013Z,5.90
2018-12-21T08:53:21.552Z,5.90
2018-12-21T08:55:49.087Z,5.90
2018-12-21T08:58:16.647Z,5.90
2018-12-21T09:00:44.200Z,5.90
2018-12-21T09:03:11.746Z,5.90
2018-12-21T09:05:39.292Z,5.90
2018-12-21T09:08:06.833Z,5.60
2018-12-21T09:10:34.399Z,5.40
2018-12-21T09:13:01.919Z,5.20
2018-12-21T09:15:29.483Z,5.00
2018-12-21T09:17:57.039Z,4.70
2018-12-21T09:20:24.571Z,4.60
2018-12-21T09:22:52.143Z,4.40
2018-12-21T09:25:19.678Z,4.30
2018-12-21T09:27:47.234Z,4.20
2018-12-21T09:30:14.756Z,4.10
2018-12-21T09:32:43.322Z,4.10
2018-12-21T09:35:11.068Z,4.00
2018-12-21T09:37:38.606Z,4.00
2018-12-21T09:40:08.531Z,3.90
2018-12-21T10:14:48.647Z,3.90
2018-12-21T10:17:19.958Z,3.90
2018-12-21T10:19:47.490Z,4.00
2018-12-21T10:22:16.017Z,4.10
2018-12-21T10:24:43.514Z,4.10
2018-12-21T10:27:11.096Z,4.10
2018-12-21T10:29:39.390Z,4.10
2018-12-21T10:32:06.936Z,4.20
2018-12-21T10:34:34.511Z,4.20
2018-12-21T10:37:02.051Z,4.20
2018-12-21T10:39:29.567Z,4.30
2018-12-21T10:41:57.146Z,4.30
2018-12-21T10:44:25.975Z,4.30
2018-12-21T10:46:53.658Z,4.30
2018-12-21T10:49:22.505Z,4.30
2018-12-21T10:51:50.056Z,4.40
2018-12-21T10:54:17.672Z,4.40
2018-12-21T10:56:45.927Z,4.40
2018-12-21T10:59:20.911Z,4.50
2018-12-21T11:01:43.015Z,4.60
2018-12-21T11:04:10.533Z,4.60
2018-12-21T11:06:38.051Z,4.70
2018-12-21T11:09:05.987Z,4.90
2018-12-21T11:19:02.329Z,5.40
2018-12-21T11:21:29.864Z,5.50
2018-12-21T11:23:57.406Z,5.60
2018-12-21T11:26:24.935Z,5.80
2018-12-21T11:28:52.471Z,5.90
2018-12-21T11:31:20.009Z,5.90
2018-12-21T11:33:47.627Z,5.90
2018-12-21T11:36:15.164Z,5.90
2018-12-21T11:38:42.694Z,5.90
2018-12-21T11:41:10.265Z,5.90
2018-12-21T11:43:37.806Z,5.90
2018-12-21T11:46:05.313Z,5.90
2018-12-21T11:48:32.903Z,5.90
2018-12-21T11:51:00.400Z,5.80
2018-12-21T11:53:27.931Z,5.80
2018-12-21T11:55:55.460Z,5.70
2018-12-21T11:58:22.983Z,5.80
2018-12-21T12:00:50.532Z,5.80
2018-12-21T12:03:18.030Z,5.90
2018-12-21T12:05:45.568Z,5.90
2018-12-21T12:08:13.107Z,5.90
2018-12-21T12:10:40.609Z,5.90
2018-12-21T12:13:08.156Z,6.00
2018-12-21T12:15:35.652Z,6.10
2018-12-21T12:18:03.246Z,6.20
2018-12-21T12:20:30.803Z,6.30
2018-12-21T12:22:58.352Z,6.50
2018-12-21T12:25:25.912Z,6.50
2018-12-21T12:27:53.548Z,6.70
2018-12-21T12:30:21.211Z,6.80
2018-12-21T12:32:48.795Z,6.90
2018-12-21T12:35:16.366Z,6.90
2018-12-21T12:37:43.916Z,6.90
2018-12-21T12:40:11.498Z,6.90
2018-12-21T12:42:39.013Z,6.80
2018-12-21T12:45:07.101Z,6.60
2018-12-21T12:47:34.773Z,6.50
2018-12-21T12:50:03.273Z,6.40
2018-12-21T12:52:30.837Z,6.40
2018-12-21T12:55:02.581Z,6.40
2018-12-21T12:57:28.005Z,6.40
2018-12-21T12:59:55.605Z,6.50
2018-12-21T13:02:23.120Z,6.60
2018-12-21T13:04:50.711Z,6.70
2018-12-21T13:07:18.327Z,6.60
2018-12-21T13:09:54.730Z,6.60
2018-12-21T13:12:22.299Z,6.60
2018-12-21T13:14:49.915Z,6.50
2018-12-21T13:17:17.492Z,6.60
2018-12-21T13:19:44.994Z,6.50
2018-12-21T13:22:12.569Z,6.50
2018-12-21T13:24:40.274Z,6.60
2018-12-21T13:27:07.959Z,6.60
2018-12-21T13:29:35.543Z,6.70
2018-12-21T13:32:03.087Z,6.70
2018-12-21T13:34:30.632Z,6.70
2018-12-21T13:36:58.252Z,6.80
2018-12-21T13:39:27.691Z,6.80
2018-12-21T13:41:55.359Z,6.80
2018-12-21T13:44:23.478Z,6.80
2018-12-21T13:46:51.093Z,6.80
2018-12-21T13:49:18.686Z,6.80
2018-12-21T13:51:46.203Z,6.80
2018-12-21T13:54:13.735Z,6.70
2018-12-21T13:56:43.077Z,6.70
2018-12-21T13:59:10.865Z,6.60
2018-12-21T14:01:38.371Z,6.60
2018-12-21T14:04:05.932Z,6.70
2018-12-21T14:06:33.516Z,6.60
2018-12-21T14:09:06.219Z,6.70
2018-12-21T14:15:03.351Z,6.70
2018-12-21T14:17:47.803Z,6.60
2018-12-21T14:20:18.627Z,6.60
2018-12-21T14:30:15.178Z,6.50
2018-12-21T14:32:42.873Z,6.50
2018-12-21T14:35:10.419Z,6.50
2018-12-21T14:41:30.432Z,6.60
2018-12-21T14:44:19.182Z,6.50
2018-12-21T14:50:18.234Z,6.50
2018-12-21T14:53:07.913Z,6.60
2018-12-21T14:55:37.647Z,6.60
2018-12-21T14:58:20.160Z,6.70
2018-12-21T15:00:57.836Z,6.70
2018-12-21T15:03:34.547Z,6.70
2018-12-21T15:06:12.824Z,6.70
2018-12-21T15:08:53.643Z,6.70
2018-12-21T15:11:48.406Z,6.70
2018-12-21T15:14:15.907Z,6.80
2018-12-21T15:16:43.758Z,6.80
2018-12-21T15:23:18.709Z,6.90
2018-12-21T15:25:46.462Z,6.90
2018-12-21T15:28:14.083Z,6.80
2018-12-21T15:30:41.765Z,6.80
2018-12-21T15:33:09.335Z,6.80
2018-12-21T15:35:36.917Z,6.80
2018-12-21T15:38:04.465Z,6.70
2018-12-21T15:40:32.054Z,6.70
2018-12-21T15:42:59.757Z,6.80
2018-12-21T15:45:27.252Z,6.80
2018-12-21T15:47:55.477Z,6.80
2018-12-21T15:50:23.039Z,6.80
2018-12-21T15:52:51.143Z,6.90
2018-12-21T15:55:19.749Z,6.90
2018-12-21T15:57:47.263Z,6.90
2018-12-21T16:00:16.724Z,6.90
2018-12-21T16:02:44.496Z,6.90
2018-12-21T16:05:12.024Z,6.90
2018-12-21T16:07:39.527Z,7.00
2018-12-21T16:10:09.329Z,7.00
2018-12-21T16:12:36.842Z,7.00
2018-12-21T16:15:04.734Z,6.90
2018-12-21T16:20:06.250Z,6.90
2018-12-21T16:22:42.104Z,6.80
2018-12-21T16:25:03.536Z,6.70
2018-12-21T16:27:31.076Z,6.70
2018-12-21T16:29:58.601Z,6.70
2018-12-21T16:32:26.149Z,6.60
2018-12-21T16:34:53.737Z,6.60
2018-12-21T16:37:21.265Z,6.60
2018-12-21T16:39:48.856Z,6.60
2018-12-21T16:42:16.374Z,6.60
2018-12-21T16:44:43.907Z,6.60
2018-12-21T16:47:11.413Z,6.60
2018-12-21T16:49:38.994Z,6.70
2018-12-21T16:52:06.539Z,6.70
2018-12-21T16:54:34.043Z,6.70
2018-12-21T16:57:01.598Z,6.80
2018-12-21T16:59:29.102Z,6.80
2018-12-21T17:01:56.652Z,6.80
2018-12-21T17:04:24.210Z,6.80
2018-12-21T17:06:51.754Z,6.90
2018-12-21T17:09:19.270Z,6.90
2018-12-21T17:11:46.965Z,6.90
2018-12-21T17:14:14.457Z,6.90
2018-12-21T17:16:41.993Z,6.90
2018-12-21T17:19:09.624Z,6.90
2018-12-21T17:21:37.195Z,6.90
2018-12-21T17:24:05.198Z,7.00
2018-12-21T17:26:32.707Z,7.10
2018-12-21T17:29:00.272Z,7.10
2018-12-21T17:31:27.773Z,7.20
2018-12-21T17:33:55.357Z,7.20
2018-12-21T17:36:22.888Z,7.20
2018-12-21T17:38:50.465Z,7.30
2018-12-21T17:41:17.981Z,7.30
2018-12-21T17:43:45.866Z,7.30
2018-12-21T17:46:13.614Z,7.30
2018-12-21T17:48:41.196Z,7.30
2018-12-21T17:51:08.749Z,7.40
2018-12-21T17:53:36.270Z,7.50
2018-12-21T17:56:03.805Z,7.50
2018-12-21T17:58:31.388Z,7.50
2018-12-21T18:00:59.151Z,7.60
2018-12-21T18:03:27.126Z,7.60
2018-12-21T18:05:54.673Z,7.60
2018-12-21T18:08:22.195Z,7.60
2018-12-21T18:10:49.708Z,7.60
2018-12-21T18:13:17.261Z,7.60
2018-12-21T18:15:44.801Z,7.60
2018-12-21T18:18:12.364Z,7.60
2018-12-21T18:20:39.898Z,7.60
2018-12-21T18:23:10.298Z,7.60
2018-12-21T18:25:37.937Z,7.60
2018-12-21T18:28:10.690Z,7.60
2018-12-21T18:30:35.346Z,7.60
2018-12-21T18:33:10.486Z,7.70
2018-12-21T18:35:32.516Z,7.80
2018-12-21T18:38:00.588Z,7.80
2018-12-21T18:40:28.221Z,7.80
2018-12-21T18:42:55.743Z,7.80
2018-12-21T18:45:23.356Z,7.80
2018-12-21T18:47:51.076Z,7.90
2018-12-21T18:50:18.645Z,7.90
2018-12-21T18:52:46.214Z,8.00
2018-12-21T18:55:14.508Z,8.10
2018-12-21T18:57:42.408Z,8.10
2018-12-21T19:00:13.059Z,8.10
2018-12-21T19:02:40.573Z,8.10
2018-12-21T19:05:08.354Z,8.10
2018-12-21T19:07:35.853Z,8.20
2018-12-21T19:10:04.089Z,8.20
2018-12-21T19:12:31.747Z,8.10
2018-12-21T19:14:59.527Z,8.10
2018-12-21T19:17:27.088Z,8.20
2018-12-21T19:19:54.589Z,8.20
2018-12-21T19:22:22.167Z,8.20
2018-12-21T19:24:49.710Z,8.30
2018-12-21T19:27:17.251Z,8.30
2018-12-21T19:29:44.812Z,8.30
2018-12-21T19:32:12.365Z,8.30
2018-12-21T19:34:39.981Z,8.30
2018-12-21T19:37:07.476Z,8.30
2018-12-21T19:39:35.088Z,8.30
2018-12-21T19:42:02.658Z,8.30
2018-12-21T19:44:30.351Z,8.40
2018-12-21T19:46:58.078Z,8.40
2018-12-21T19:49:25.628Z,8.40
2018-12-21T19:51:53.165Z,8.40
2018-12-21T19:54:20.785Z,8.40
2018-12-21T19:56:49.960Z,8.50
2018-12-21T19:59:17.527Z,8.50
2018-12-21T20:01:45.084Z,8.50
2018-12-21T20:04:12.614Z,8.50
2018-12-21T20:06:40.151Z,8.50
2018-12-21T20:09:07.814Z,8.50
2018-12-21T20:11:35.385Z,8.50
2018-12-21T20:14:02.996Z,8.50
2018-12-21T20:16:30.888Z,8.50
2018-12-21T20:19:00.022Z,8.50
2018-12-21T20:21:28.367Z,8.40
2018-12-21T20:23:56.178Z,8.40
2018-12-21T20:26:25.148Z,8.40
2018-12-21T20:28:52.983Z,8.50
2018-12-21T20:31:20.688Z,8.50
2018-12-21T20:33:49.409Z,8.40
2018-12-21T20:36:17.092Z,8.50
2018-12-21T20:38:44.688Z,8.50
2018-12-21T20:41:12.399Z,8.50
2018-12-21T20:43:40.013Z,8.60
2018-12-21T20:46:07.571Z,8.60
2018-12-21T20:48:35.524Z,8.60
2018-12-21T20:51:03.168Z,8.60
2018-12-21T20:53:30.864Z,8.60
2018-12-21T20:55:58.427Z,8.60
2018-12-21T20:58:27.934Z,8.60
2018-12-21T21:00:55.556Z,8.60
2018-12-21T21:03:23.091Z,8.60
2018-12-21T21:05:50.669Z,8.50
2018-12-21T21:08:18.303Z,8.40
2018-12-21T21:10:46.727Z,8.40
2018-12-21T21:13:19.182Z,8.30
2018-12-21T21:15:44.312Z,8.30
2018-12-21T21:18:12.556Z,8.30
2018-12-21T21:20:40.764Z,8.30
2018-12-21T21:23:08.498Z,8.30
2018-12-21T21:25:36.186Z,8.40
2018-12-21T21:28:03.940Z,8.30
2018-12-21T21:30:32.641Z,8.40
2018-12-21T21:33:00.176Z,8.40
2018-12-21T21:35:27.682Z,8.40
2018-12-21T21:37:55.249Z,8.40
2018-12-21T21:40:22.869Z,8.40
2018-12-21T21:42:57.432Z,8.40
2018-12-21T21:45:20.055Z,8.50
2018-12-21T21:47:47.641Z,8.50
2018-12-21T21:50:15.233Z,8.40
2018-12-21T21:52:43.462Z,8.40
2018-12-21T21:55:10.951Z,8.30
2018-12-21T21:57:39.524Z,8.30
2018-12-21T22:00:10.335Z,8.30
2018-12-21T22:02:37.887Z,8.30
2018-12-21T22:05:05.506Z,8.30
2018-12-21T22:07:33.050Z,8.30
2018-12-21T22:10:00.574Z,8.30
2018-12-21T22:12:28.131Z,8.30
2018-12-21T22:14:55.622Z,8.40
2018-12-21T22:17:23.194Z,8.40
2018-12-21T22:19:50.761Z,8.40
2018-12-21T22:22:18.379Z,8.50
2018-12-21T22:24:45.907Z,8.50
2018-12-21T22:27:13.471Z,8.60
2018-12-21T22:29:41.116Z,8.70
2018-12-21T22:32:08.642Z,8.70
2018-12-21T22:34:36.189Z,8.80
2018-12-21T22:37:03.858Z,8.80
2018-12-21T22:39:31.489Z,8.70
2018-12-21T22:41:59.024Z,8.70
2018-12-21T22:44:26.517Z,8.70
2018-12-21T22:46:54.035Z,8.70
2018-12-21T22:49:21.536Z,8.70
2018-12-21T22:51:49.076Z,8.60
2018-12-21T22:54:16.626Z,8.60
2018-12-21T22:56:44.144Z,8.60
2018-12-21T22:59:11.660Z,8.70
2018-12-21T23:01:39.263Z,8.70
2018-12-21T23:04:06.889Z,8.70
2018-12-21T23:06:34.437Z,8.70
2018-12-21T23:09:01.960Z,8.70
2018-12-21T23:11:29.479Z,8.70
2018-12-21T23:13:56.999Z,8.70
2018-12-21T23:16:24.507Z,8.60
2018-12-21T23:18:52.030Z,8.50
2018-12-21T23:21:19.770Z,8.50
2018-12-21T23:23:47.337Z,8.50
2018-12-21T23:26:14.857Z,8.50
2018-12-21T23:28:42.396Z,8.50
2018-12-21T23:31:10.048Z,8.50
2018-12-21T23:33:37.647Z,8.50
2018-12-21T23:36:05.127Z,8.60
2018-12-21T23:38:32.631Z,8.60
2018-12-21T23:41:00.186Z,8.70
2018-12-21T23:43:27.707Z,8.70
2018-12-21T23:45:55.216Z,8.70
2018-12-21T23:48:22.745Z,8.70
2018-12-21T23:50:50.292Z,8.70
2018-12-21T23:53:17.979Z,8.70
2018-12-21T23:55:45.536Z,8.70
2018-12-21T23:58:13.803Z,8.70
